sensor_id;sensor_type;location;lat;lon;timestamp;P1;durP1;ratioP1;P2;durP2;ratioP2
35648;SDS011;21768;48.562;13.414;2023-08-06T00:02:11;4.07;;;3.17;;
35648;SDS011;21768;48.562;13.414;2023-08-06T00:04:37;5.25;;;3.28;;
35648;SDS011;21768;48.562;13.414;2023-08-06T00:07:02;5.03;;;3.28;;
35648;SDS011;21768;48.562;13.414;2023-08-06T00:09:28;4.45;;;3.28;;
35648;SDS011;21768;48.562;13.414;2023-08-06T00:11:53;5.53;;;3.20;;
35648;SDS011;21768;48.562;13.414;2023-08-06T00:14:18;6.38;;;3.13;;
35648;SDS011;21768;48.562;13.414;2023-08-06T00:16:44;7.97;;;3.42;;
35648;SDS011;21768;48.562;13.414;2023-08-06T00:19:09;5.07;;;3.10;;
35648;SDS011;21768;48.562;13.414;2023-08-06T00:21:36;4.28;;;3.28;;
35648;SDS011;21768;48.562;13.414;2023-08-06T00:24:01;5.57;;;3.05;;
35648;SDS011;21768;48.562;13.414;2023-08-06T00:26:26;5.28;;;3.60;;
35648;SDS011;21768;48.562;13.414;2023-08-06T00:28:52;6.95;;;4.30;;
35648;SDS011;21768;48.562;13.414;2023-08-06T00:31:17;9.95;;;4.68;;
35648;SDS011;21768;48.562;13.414;2023-08-06T00:33:42;5.63;;;4.28;;
35648;SDS011;21768;48.562;13.414;2023-08-06T00:36:08;10.95;;;4.90;;
35648;SDS011;21768;48.562;13.414;2023-08-06T00:38:33;5.72;;;4.13;;
35648;SDS011;21768;48.562;13.414;2023-08-06T00:40:58;6.47;;;5.07;;
35648;SDS011;21768;48.562;13.414;2023-08-06T00:43:24;10.35;;;4.97;;
35648;SDS011;21768;48.562;13.414;2023-08-06T00:45:49;8.95;;;5.30;;
35648;SDS011;21768;48.562;13.414;2023-08-06T00:48:14;11.05;;;5.95;;
35648;SDS011;21768;48.562;13.414;2023-08-06T00:50:40;7.82;;;5.18;;
35648;SDS011;21768;48.562;13.414;2023-08-06T00:53:06;7.07;;;5.38;;
35648;SDS011;21768;48.562;13.414;2023-08-06T00:55:31;12.52;;;6.13;;
35648;SDS011;21768;48.562;13.414;2023-08-06T00:57:58;7.32;;;6.05;;
35648;SDS011;21768;48.562;13.414;2023-08-06T01:00:24;8.65;;;5.95;;
35648;SDS011;21768;48.562;13.414;2023-08-06T01:02:49;10.35;;;5.88;;
35648;SDS011;21768;48.562;13.414;2023-08-06T01:05:15;7.15;;;5.93;;
35648;SDS011;21768;48.562;13.414;2023-08-06T01:16:11;9.25;;;6.97;;
35648;SDS011;21768;48.562;13.414;2023-08-06T01:18:39;12.63;;;7.80;;
35648;SDS011;21768;48.562;13.414;2023-08-06T01:21:06;9.30;;;6.65;;
35648;SDS011;21768;48.562;13.414;2023-08-06T01:23:32;9.30;;;7.13;;
35648;SDS011;21768;48.562;13.414;2023-08-06T01:28:44;8.80;;;6.72;;
35648;SDS011;21768;48.562;13.414;2023-08-06T01:31:26;12.90;;;6.95;;
35648;SDS011;21768;48.562;13.414;2023-08-06T01:33:55;14.10;;;7.85;;
35648;SDS011;21768;48.562;13.414;2023-08-06T01:36:23;11.40;;;7.32;;
35648;SDS011;21768;48.562;13.414;2023-08-06T01:38:51;11.00;;;7.22;;
35648;SDS011;21768;48.562;13.414;2023-08-06T01:41:17;11.68;;;7.93;;
35648;SDS011;21768;48.562;13.414;2023-08-06T01:43:43;13.82;;;7.22;;
35648;SDS011;21768;48.562;13.414;2023-08-06T01:46:08;10.18;;;7.50;;
35648;SDS011;21768;48.562;13.414;2023-08-06T01:48:33;11.85;;;7.45;;
35648;SDS011;21768;48.562;13.414;2023-08-06T01:50:59;9.75;;;7.05;;
35648;SDS011;21768;48.562;13.414;2023-08-06T01:53:24;11.18;;;7.63;;
35648;SDS011;21768;48.562;13.414;2023-08-06T01:55:49;11.23;;;7.63;;
35648;SDS011;21768;48.562;13.414;2023-08-06T01:58:15;11.45;;;7.25;;
35648;SDS011;21768;48.562;13.414;2023-08-06T02:00:41;10.45;;;7.70;;
35648;SDS011;21768;48.562;13.414;2023-08-06T02:03:06;8.98;;;7.38;;
35648;SDS011;21768;48.562;13.414;2023-08-06T02:05:31;12.77;;;7.72;;
35648;SDS011;21768;48.562;13.414;2023-08-06T02:07:57;12.18;;;7.72;;
35648;SDS011;21768;48.562;13.414;2023-08-06T02:10:22;10.48;;;7.10;;
35648;SDS011;21768;48.562;13.414;2023-08-06T02:12:48;14.05;;;7.25;;
35648;SDS011;21768;48.562;13.414;2023-08-06T02:15:13;11.82;;;7.55;;
35648;SDS011;21768;48.562;13.414;2023-08-06T02:17:38;11.32;;;7.28;;
35648;SDS011;21768;48.562;13.414;2023-08-06T02:20:04;14.20;;;7.63;;
35648;SDS011;21768;48.562;13.414;2023-08-06T02:22:30;12.25;;;7.90;;
35648;SDS011;21768;48.562;13.414;2023-08-06T02:24:55;15.88;;;7.45;;
35648;SDS011;21768;48.562;13.414;2023-08-06T02:27:21;17.33;;;9.23;;
35648;SDS011;21768;48.562;13.414;2023-08-06T02:29:46;9.52;;;7.25;;
35648;SDS011;21768;48.562;13.414;2023-08-06T02:32:11;15.30;;;7.30;;
35648;SDS011;21768;48.562;13.414;2023-08-06T02:34:37;11.60;;;8.07;;
35648;SDS011;21768;48.562;13.414;2023-08-06T02:37:02;22.48;;;7.60;;
35648;SDS011;21768;48.562;13.414;2023-08-06T02:39:28;10.00;;;5.00;;
35648;SDS011;21768;48.562;13.414;2023-08-06T02:41:53;7.57;;;4.72;;
35648;SDS011;21768;48.562;13.414;2023-08-06T02:44:19;3.40;;;2.85;;
35648;SDS011;21768;48.562;13.414;2023-08-06T02:46:44;4.50;;;2.83;;
35648;SDS011;21768;48.562;13.414;2023-08-06T02:49:10;4.25;;;3.20;;
35648;SDS011;21768;48.562;13.414;2023-08-06T02:51:35;3.83;;;2.60;;
35648;SDS011;21768;48.562;13.414;2023-08-06T02:54:01;6.15;;;3.13;;
35648;SDS011;21768;48.562;13.414;2023-08-06T02:56:26;8.70;;;3.38;;
35648;SDS011;21768;48.562;13.414;2023-08-06T02:58:51;5.80;;;3.05;;
35648;SDS011;21768;48.562;13.414;2023-08-06T03:01:17;3.97;;;2.85;;
35648;SDS011;21768;48.562;13.414;2023-08-06T03:03:42;5.82;;;3.28;;
35648;SDS011;21768;48.562;13.414;2023-08-06T03:06:07;4.70;;;3.28;;
35648;SDS011;21768;48.562;13.414;2023-08-06T03:08:33;7.07;;;3.40;;
35648;SDS011;21768;48.562;13.414;2023-08-06T03:10:58;6.57;;;3.28;;
35648;SDS011;21768;48.562;13.414;2023-08-06T03:13:23;5.18;;;3.20;;
35648;SDS011;21768;48.562;13.414;2023-08-06T03:15:53;5.97;;;3.85;;
35648;SDS011;21768;48.562;13.414;2023-08-06T03:18:19;4.40;;;3.28;;
35648;SDS011;21768;48.562;13.414;2023-08-06T03:20:45;4.05;;;3.35;;
35648;SDS011;21768;48.562;13.414;2023-08-06T03:23:10;5.38;;;3.53;;
35648;SDS011;21768;48.562;13.414;2023-08-06T03:25:35;7.10;;;3.72;;
35648;SDS011;21768;48.562;13.414;2023-08-06T03:28:01;5.07;;;3.45;;
35648;SDS011;21768;48.562;13.414;2023-08-06T03:30:27;5.82;;;3.00;;
35648;SDS011;21768;48.562;13.414;2023-08-06T03:32:52;5.38;;;3.65;;
35648;SDS011;21768;48.562;13.414;2023-08-06T03:35:17;6.88;;;4.13;;
35648;SDS011;21768;48.562;13.414;2023-08-06T03:37:43;7.82;;;3.97;;
35648;SDS011;21768;48.562;13.414;2023-08-06T03:40:08;6.63;;;3.70;;
35648;SDS011;21768;48.562;13.414;2023-08-06T03:42:34;8.25;;;3.97;;
35648;SDS011;21768;48.562;13.414;2023-08-06T03:45:00;5.97;;;3.60;;
35648;SDS011;21768;48.562;13.414;2023-08-06T03:47:25;8.32;;;3.90;;
35648;SDS011;21768;48.562;13.414;2023-08-06T03:49:50;11.52;;;4.20;;
35648;SDS011;21768;48.562;13.414;2023-08-06T03:52:16;9.15;;;3.92;;
35648;SDS011;21768;48.562;13.414;2023-08-06T03:54:41;6.90;;;4.70;;
35648;SDS011;21768;48.562;13.414;2023-08-06T03:57:08;6.43;;;3.80;;
35648;SDS011;21768;48.562;13.414;2023-08-06T03:59:34;7.13;;;3.85;;
35648;SDS011;21768;48.562;13.414;2023-08-06T04:01:59;5.43;;;3.35;;
35648;SDS011;21768;48.562;13.414;2023-08-06T04:04:24;5.38;;;3.40;;
35648;SDS011;21768;48.562;13.414;2023-08-06T04:06:50;5.25;;;3.67;;
35648;SDS011;21768;48.562;13.414;2023-08-06T04:09:15;4.60;;;3.40;;
35648;SDS011;21768;48.562;13.414;2023-08-06T04:11:41;5.03;;;3.30;;
35648;SDS011;21768;48.562;13.414;2023-08-06T04:14:06;5.75;;;2.90;;
35648;SDS011;21768;48.562;13.414;2023-08-06T04:16:31;4.72;;;3.63;;
35648;SDS011;21768;48.562;13.414;2023-08-06T04:18:57;7.28;;;3.55;;
35648;SDS011;21768;48.562;13.414;2023-08-06T04:21:23;5.10;;;3.38;;
35648;SDS011;21768;48.562;13.414;2023-08-06T04:23:48;6.85;;;4.00;;
35648;SDS011;21768;48.562;13.414;2023-08-06T04:26:14;7.40;;;3.42;;
35648;SDS011;21768;48.562;13.414;2023-08-06T04:28:39;5.78;;;3.55;;
35648;SDS011;21768;48.562;13.414;2023-08-06T04:31:04;4.63;;;3.60;;
35648;SDS011;21768;48.562;13.414;2023-08-06T04:33:30;4.63;;;3.45;;
35648;SDS011;21768;48.562;13.414;2023-08-06T04:35:55;5.97;;;3.47;;
35648;SDS011;21768;48.562;13.414;2023-08-06T04:38:22;8.07;;;4.13;;
35648;SDS011;21768;48.562;13.414;2023-08-06T04:40:51;4.97;;;3.53;;
35648;SDS011;21768;48.562;13.414;2023-08-06T04:43:17;8.30;;;3.90;;
35648;SDS011;21768;48.562;13.414;2023-08-06T04:45:46;7.15;;;4.20;;
35648;SDS011;21768;48.562;13.414;2023-08-06T04:48:12;6.07;;;4.20;;
35648;SDS011;21768;48.562;13.414;2023-08-06T04:50:38;8.23;;;3.70;;
35648;SDS011;21768;48.562;13.414;2023-08-06T04:53:03;9.68;;;4.00;;
35648;SDS011;21768;48.562;13.414;2023-08-06T04:55:28;6.00;;;3.72;;
35648;SDS011;21768;48.562;13.414;2023-08-06T04:57:54;5.40;;;3.90;;
35648;SDS011;21768;48.562;13.414;2023-08-06T05:00:19;6.38;;;4.28;;
35648;SDS011;21768;48.562;13.414;2023-08-06T05:02:44;5.07;;;3.55;;
35648;SDS011;21768;48.562;13.414;2023-08-06T05:05:10;6.32;;;4.00;;
35648;SDS011;21768;48.562;13.414;2023-08-06T05:07:35;5.25;;;3.72;;
35648;SDS011;21768;48.562;13.414;2023-08-06T05:10:00;5.22;;;3.30;;
35648;SDS011;21768;48.562;13.414;2023-08-06T05:12:26;6.57;;;3.70;;
35648;SDS011;21768;48.562;13.414;2023-08-06T05:14:51;6.63;;;4.20;;
35648;SDS011;21768;48.562;13.414;2023-08-06T05:17:17;7.78;;;3.67;;
35648;SDS011;21768;48.562;13.414;2023-08-06T05:19:42;5.53;;;3.47;;
35648;SDS011;21768;48.562;13.414;2023-08-06T05:22:07;3.92;;;3.28;;
35648;SDS011;21768;48.562;13.414;2023-08-06T05:24:33;9.65;;;3.63;;
35648;SDS011;21768;48.562;13.414;2023-08-06T05:26:58;7.95;;;3.38;;
35648;SDS011;21768;48.562;13.414;2023-08-06T05:29:23;5.53;;;2.95;;
35648;SDS011;21768;48.562;13.414;2023-08-06T05:31:49;5.40;;;3.53;;
35648;SDS011;21768;48.562;13.414;2023-08-06T05:34:14;4.40;;;3.17;;
35648;SDS011;21768;48.562;13.414;2023-08-06T05:36:39;6.63;;;3.25;;
35648;SDS011;21768;48.562;13.414;2023-08-06T05:39:05;4.65;;;3.40;;
35648;SDS011;21768;48.562;13.414;2023-08-06T05:41:30;4.68;;;3.30;;
35648;SDS011;21768;48.562;13.414;2023-08-06T05:43:55;3.83;;;3.05;;
35648;SDS011;21768;48.562;13.414;2023-08-06T05:46:21;4.05;;;3.10;;
35648;SDS011;21768;48.562;13.414;2023-08-06T05:48:46;4.30;;;2.85;;
35648;SDS011;21768;48.562;13.414;2023-08-06T05:51:11;4.10;;;2.92;;
35648;SDS011;21768;48.562;13.414;2023-08-06T05:53:38;6.80;;;3.08;;
35648;SDS011;21768;48.562;13.414;2023-08-06T05:56:03;3.50;;;2.70;;
35648;SDS011;21768;48.562;13.414;2023-08-06T05:58:29;6.18;;;2.70;;
35648;SDS011;21768;48.562;13.414;2023-08-06T06:00:55;5.80;;;2.75;;
35648;SDS011;21768;48.562;13.414;2023-08-06T06:03:21;4.43;;;2.60;;
35648;SDS011;21768;48.562;13.414;2023-08-06T06:05:46;9.25;;;2.88;;
35648;SDS011;21768;48.562;13.414;2023-08-06T06:08:12;4.57;;;2.90;;
35648;SDS011;21768;48.562;13.414;2023-08-06T06:10:37;5.00;;;2.88;;
35648;SDS011;21768;48.562;13.414;2023-08-06T06:13:02;5.65;;;2.55;;
35648;SDS011;21768;48.562;13.414;2023-08-06T06:15:28;4.20;;;2.50;;
35648;SDS011;21768;48.562;13.414;2023-08-06T06:17:53;4.43;;;2.30;;
35648;SDS011;21768;48.562;13.414;2023-08-06T06:20:18;7.40;;;2.40;;
35648;SDS011;21768;48.562;13.414;2023-08-06T06:22:44;6.47;;;2.58;;
35648;SDS011;21768;48.562;13.414;2023-08-06T06:25:09;2.92;;;2.13;;
35648;SDS011;21768;48.562;13.414;2023-08-06T06:27:35;5.10;;;2.60;;
35648;SDS011;21768;48.562;13.414;2023-08-06T06:30:00;2.92;;;2.20;;
35648;SDS011;21768;48.562;13.414;2023-08-06T06:32:26;5.75;;;2.13;;
35648;SDS011;21768;48.562;13.414;2023-08-06T06:34:52;3.05;;;1.83;;
35648;SDS011;21768;48.562;13.414;2023-08-06T06:37:17;5.65;;;2.17;;
35648;SDS011;21768;48.562;13.414;2023-08-06T06:39:43;3.33;;;2.10;;
35648;SDS011;21768;48.562;13.414;2023-08-06T06:42:09;5.63;;;2.22;;
35648;SDS011;21768;48.562;13.414;2023-08-06T06:44:35;4.90;;;2.50;;
35648;SDS011;21768;48.562;13.414;2023-08-06T06:47:00;2.92;;;2.63;;
35648;SDS011;21768;48.562;13.414;2023-08-06T06:49:25;3.08;;;2.58;;
35648;SDS011;21768;48.562;13.414;2023-08-06T06:51:51;3.65;;;2.65;;
35648;SDS011;21768;48.562;13.414;2023-08-06T06:54:16;5.50;;;2.70;;
35648;SDS011;21768;48.562;13.414;2023-08-06T06:56:41;4.00;;;2.80;;
35648;SDS011;21768;48.562;13.414;2023-08-06T06:59:07;6.25;;;2.67;;
35648;SDS011;21768;48.562;13.414;2023-08-06T07:01:32;4.03;;;2.58;;
35648;SDS011;21768;48.562;13.414;2023-08-06T07:03:58;4.63;;;2.40;;
35648;SDS011;21768;48.562;13.414;2023-08-06T07:06:23;4.88;;;2.42;;
35648;SDS011;21768;48.562;13.414;2023-08-06T07:08:48;3.85;;;2.70;;
35648;SDS011;21768;48.562;13.414;2023-08-06T07:11:14;5.20;;;2.60;;
35648;SDS011;21768;48.562;13.414;2023-08-06T07:13:39;4.60;;;2.85;;
35648;SDS011;21768;48.562;13.414;2023-08-06T07:16:04;6.40;;;2.58;;
35648;SDS011;21768;48.562;13.414;2023-08-06T07:18:30;6.95;;;2.38;;
35648;SDS011;21768;48.562;13.414;2023-08-06T07:20:55;3.47;;;2.33;;
35648;SDS011;21768;48.562;13.414;2023-08-06T07:23:21;3.50;;;2.60;;
35648;SDS011;21768;48.562;13.414;2023-08-06T07:25:48;5.05;;;2.65;;
35648;SDS011;21768;48.562;13.414;2023-08-06T07:28:14;4.82;;;2.38;;
35648;SDS011;21768;48.562;13.414;2023-08-06T07:30:40;4.85;;;2.80;;
35648;SDS011;21768;48.562;13.414;2023-08-06T07:33:06;4.68;;;2.75;;
35648;SDS011;21768;48.562;13.414;2023-08-06T07:35:32;8.63;;;2.78;;
35648;SDS011;21768;48.562;13.414;2023-08-06T07:37:58;4.20;;;2.30;;
35648;SDS011;21768;48.562;13.414;2023-08-06T07:40:23;3.17;;;2.55;;
35648;SDS011;21768;48.562;13.414;2023-08-06T07:42:49;4.18;;;2.78;;
35648;SDS011;21768;48.562;13.414;2023-08-06T07:45:14;5.10;;;3.10;;
35648;SDS011;21768;48.562;13.414;2023-08-06T07:47:39;5.63;;;3.33;;
35648;SDS011;21768;48.562;13.414;2023-08-06T07:50:05;5.97;;;3.17;;
35648;SDS011;21768;48.562;13.414;2023-08-06T07:52:31;6.13;;;3.13;;
35648;SDS011;21768;48.562;13.414;2023-08-06T07:54:56;4.80;;;3.08;;
35648;SDS011;21768;48.562;13.414;2023-08-06T07:57:22;7.13;;;3.63;;
35648;SDS011;21768;48.562;13.414;2023-08-06T07:59:47;8.95;;;4.10;;
35648;SDS011;21768;48.562;13.414;2023-08-06T08:02:12;7.28;;;3.38;;
35648;SDS011;21768;48.562;13.414;2023-08-06T08:04:38;8.73;;;4.10;;
35648;SDS011;21768;48.562;13.414;2023-08-06T08:07:03;5.68;;;2.60;;
35648;SDS011;21768;48.562;13.414;2023-08-06T08:09:29;4.43;;;3.17;;
35648;SDS011;21768;48.562;13.414;2023-08-06T08:11:54;6.53;;;3.30;;
35648;SDS011;21768;48.562;13.414;2023-08-06T08:14:20;4.00;;;2.80;;
35648;SDS011;21768;48.562;13.414;2023-08-06T08:16:45;8.48;;;3.00;;
35648;SDS011;21768;48.562;13.414;2023-08-06T08:19:10;7.60;;;2.95;;
35648;SDS011;21768;48.562;13.414;2023-08-06T08:21:36;6.18;;;3.08;;
35648;SDS011;21768;48.562;13.414;2023-08-06T08:24:03;4.68;;;3.00;;
35648;SDS011;21768;48.562;13.414;2023-08-06T08:26:29;3.55;;;2.72;;
35648;SDS011;21768;48.562;13.414;2023-08-06T08:28:54;5.38;;;3.08;;
35648;SDS011;21768;48.562;13.414;2023-08-06T08:31:20;7.13;;;2.85;;
35648;SDS011;21768;48.562;13.414;2023-08-06T08:33:45;3.50;;;2.67;;
35648;SDS011;21768;48.562;13.414;2023-08-06T08:36:10;2.88;;;2.47;;
35648;SDS011;21768;48.562;13.414;2023-08-06T08:38:36;4.78;;;2.60;;
35648;SDS011;21768;48.562;13.414;2023-08-06T08:41:01;3.65;;;2.45;;
35648;SDS011;21768;48.562;13.414;2023-08-06T08:43:27;6.00;;;2.80;;
35648;SDS011;21768;48.562;13.414;2023-08-06T08:45:53;4.78;;;2.58;;
35648;SDS011;21768;48.562;13.414;2023-08-06T08:48:25;3.70;;;2.35;;
35648;SDS011;21768;48.562;13.414;2023-08-06T08:50:52;2.80;;;2.20;;
35648;SDS011;21768;48.562;13.414;2023-08-06T08:53:18;4.22;;;2.40;;
35648;SDS011;21768;48.562;13.414;2023-08-06T08:55:49;4.07;;;2.50;;
35648;SDS011;21768;48.562;13.414;2023-08-06T08:58:15;5.55;;;2.15;;
35648;SDS011;21768;48.562;13.414;2023-08-06T09:00:45;3.08;;;2.03;;
35648;SDS011;21768;48.562;13.414;2023-08-06T09:03:11;3.33;;;2.20;;
35648;SDS011;21768;48.562;13.414;2023-08-06T09:05:37;2.47;;;1.90;;
35648;SDS011;21768;48.562;13.414;2023-08-06T09:08:08;6.50;;;2.47;;
35648;SDS011;21768;48.562;13.414;2023-08-06T09:10:36;3.58;;;2.00;;
35648;SDS011;21768;48.562;13.414;2023-08-06T09:13:04;2.55;;;1.80;;
35648;SDS011;21768;48.562;13.414;2023-08-06T09:15:29;4.63;;;2.03;;
35648;SDS011;21768;48.562;13.414;2023-08-06T09:17:55;2.75;;;1.75;;
35648;SDS011;21768;48.562;13.414;2023-08-06T09:20:21;4.18;;;1.60;;
35648;SDS011;21768;48.562;13.414;2023-08-06T09:22:47;6.53;;;2.08;;
35648;SDS011;21768;48.562;13.414;2023-08-06T09:25:22;2.30;;;1.60;;
35648;SDS011;21768;48.562;13.414;2023-08-06T09:27:49;2.47;;;1.67;;
35648;SDS011;21768;48.562;13.414;2023-08-06T09:33:14;3.47;;;1.60;;
35648;SDS011;21768;48.562;13.414;2023-08-06T09:35:45;5.50;;;1.40;;
35648;SDS011;21768;48.562;13.414;2023-08-06T09:38:12;2.95;;;1.50;;
35648;SDS011;21768;48.562;13.414;2023-08-06T09:40:38;2.47;;;1.50;;
35648;SDS011;21768;48.562;13.414;2023-08-06T09:43:04;3.88;;;1.80;;
35648;SDS011;21768;48.562;13.414;2023-08-06T09:45:31;2.78;;;1.02;;
35648;SDS011;21768;48.562;13.414;2023-08-06T09:47:58;5.53;;;1.52;;
35648;SDS011;21768;48.562;13.414;2023-08-06T09:50:29;2.95;;;2.60;;
35648;SDS011;21768;48.562;13.414;2023-08-06T09:52:59;2.35;;;1.63;;
35648;SDS011;21768;48.562;13.414;2023-08-06T09:55:25;3.22;;;1.98;;
35648;SDS011;21768;48.562;13.414;2023-08-06T09:57:51;5.07;;;1.67;;
35648;SDS011;21768;48.562;13.414;2023-08-06T10:00:17;4.32;;;1.90;;
35648;SDS011;21768;48.562;13.414;2023-08-06T10:02:43;3.08;;;1.65;;
35648;SDS011;21768;48.562;13.414;2023-08-06T10:05:10;3.63;;;1.50;;
35648;SDS011;21768;48.562;13.414;2023-08-06T10:07:35;4.05;;;1.20;;
35648;SDS011;21768;48.562;13.414;2023-08-06T10:10:04;2.00;;;1.30;;
35648;SDS011;21768;48.562;13.414;2023-08-06T10:12:31;3.35;;;1.20;;
35648;SDS011;21768;48.562;13.414;2023-08-06T10:15:00;2.80;;;1.52;;
35648;SDS011;21768;48.562;13.414;2023-08-06T10:17:28;6.50;;;1.50;;
35648;SDS011;21768;48.562;13.414;2023-08-06T10:19:56;3.30;;;1.40;;
35648;SDS011;21768;48.562;13.414;2023-08-06T10:22:21;3.60;;;1.60;;
35648;SDS011;21768;48.562;13.414;2023-08-06T10:24:55;4.03;;;1.40;;
35648;SDS011;21768;48.562;13.414;2023-08-06T10:27:34;5.05;;;1.65;;
35648;SDS011;21768;48.562;13.414;2023-08-06T10:30:20;3.00;;;1.02;;
35648;SDS011;21768;48.562;13.414;2023-08-06T10:32:46;4.75;;;1.20;;
35648;SDS011;21768;48.562;13.414;2023-08-06T10:35:35;2.67;;;0.88;;
35648;SDS011;21768;48.562;13.414;2023-08-06T10:38:11;4.82;;;0.93;;
35648;SDS011;21768;48.562;13.414;2023-08-06T10:40:39;3.75;;;0.85;;
35648;SDS011;21768;48.562;13.414;2023-08-06T10:43:05;3.22;;;0.80;;
35648;SDS011;21768;48.562;13.414;2023-08-06T10:45:36;1.15;;;0.70;;
35648;SDS011;21768;48.562;13.414;2023-08-06T10:48:02;2.90;;;0.70;;
35648;SDS011;21768;48.562;13.414;2023-08-06T10:50:28;1.45;;;0.80;;
35648;SDS011;21768;48.562;13.414;2023-08-06T10:52:56;1.67;;;0.80;;
35648;SDS011;21768;48.562;13.414;2023-08-06T10:55:31;1.45;;;0.70;;
35648;SDS011;21768;48.562;13.414;2023-08-06T10:57:56;5.70;;;1.13;;
35648;SDS011;21768;48.562;13.414;2023-08-06T11:00:23;3.08;;;1.00;;
35648;SDS011;21768;48.562;13.414;2023-08-06T11:02:49;2.03;;;0.88;;
35648;SDS011;21768;48.562;13.414;2023-08-06T11:05:16;2.00;;;0.85;;
35648;SDS011;21768;48.562;13.414;2023-08-06T11:07:42;6.45;;;1.00;;
35648;SDS011;21768;48.562;13.414;2023-08-06T11:10:08;2.38;;;0.55;;
35648;SDS011;21768;48.562;13.414;2023-08-06T11:12:35;1.17;;;0.85;;
35648;SDS011;21768;48.562;13.414;2023-08-06T11:15:01;0.82;;;0.60;;
35648;SDS011;21768;48.562;13.414;2023-08-06T11:17:28;4.55;;;0.70;;
35648;SDS011;21768;48.562;13.414;2023-08-06T11:19:54;1.10;;;0.70;;
35648;SDS011;21768;48.562;13.414;2023-08-06T11:22:23;5.07;;;0.60;;
35648;SDS011;21768;48.562;13.414;2023-08-06T11:24:48;1.38;;;0.80;;
35648;SDS011;21768;48.562;13.414;2023-08-06T11:27:14;2.55;;;0.85;;
35648;SDS011;21768;48.562;13.414;2023-08-06T11:29:41;0.70;;;0.50;;
35648;SDS011;21768;48.562;13.414;2023-08-06T11:32:07;2.35;;;1.10;;
35648;SDS011;21768;48.562;13.414;2023-08-06T11:34:34;2.10;;;0.73;;
35648;SDS011;21768;48.562;13.414;2023-08-06T11:36:59;3.80;;;0.77;;
35648;SDS011;21768;48.562;13.414;2023-08-06T11:39:25;2.97;;;1.00;;
35648;SDS011;21768;48.562;13.414;2023-08-06T11:41:50;1.77;;;0.88;;
35648;SDS011;21768;48.562;13.414;2023-08-06T11:44:18;1.58;;;0.77;;
35648;SDS011;21768;48.562;13.414;2023-08-06T11:49:17;1.05;;;0.50;;
35648;SDS011;21768;48.562;13.414;2023-08-06T11:51:46;1.10;;;0.80;;
35648;SDS011;21768;48.562;13.414;2023-08-06T11:54:12;1.58;;;0.80;;
35648;SDS011;21768;48.562;13.414;2023-08-06T11:56:37;1.63;;;0.60;;
35648;SDS011;21768;48.562;13.414;2023-08-06T11:59:03;2.40;;;0.75;;
35648;SDS011;21768;48.562;13.414;2023-08-06T12:01:28;1.90;;;0.70;;
35648;SDS011;21768;48.562;13.414;2023-08-06T12:03:58;1.52;;;0.60;;
35648;SDS011;21768;48.562;13.414;2023-08-06T12:06:26;1.30;;;0.60;;
35648;SDS011;21768;48.562;13.414;2023-08-06T12:08:52;2.17;;;0.80;;
35648;SDS011;21768;48.562;13.414;2023-08-06T12:11:20;0.80;;;0.50;;
35648;SDS011;21768;48.562;13.414;2023-08-06T12:13:46;1.02;;;0.43;;
35648;SDS011;21768;48.562;13.414;2023-08-06T12:16:16;0.93;;;0.40;;
35648;SDS011;21768;48.562;13.414;2023-08-06T12:18:43;1.63;;;0.30;;
35648;SDS011;21768;48.562;13.414;2023-08-06T12:21:09;4.57;;;0.32;;
35648;SDS011;21768;48.562;13.414;2023-08-06T12:23:34;0.60;;;0.40;;
35648;SDS011;21768;48.562;13.414;2023-08-06T12:26:00;2.03;;;0.30;;
35648;SDS011;21768;48.562;13.414;2023-08-06T12:28:25;1.33;;;0.75;;
35648;SDS011;21768;48.562;13.414;2023-08-06T12:30:50;1.35;;;0.40;;
35648;SDS011;21768;48.562;13.414;2023-08-06T12:33:19;1.33;;;0.25;;
35648;SDS011;21768;48.562;13.414;2023-08-06T12:35:45;1.10;;;0.30;;
35648;SDS011;21768;48.562;13.414;2023-08-06T12:38:10;1.33;;;0.35;;
35648;SDS011;21768;48.562;13.414;2023-08-06T12:40:35;0.20;;;0.20;;
35648;SDS011;21768;48.562;13.414;2023-08-06T12:43:01;0.30;;;0.30;;
35648;SDS011;21768;48.562;13.414;2023-08-06T12:45:26;0.70;;;0.30;;
35648;SDS011;21768;48.562;13.414;2023-08-06T12:47:52;0.73;;;0.30;;
35648;SDS011;21768;48.562;13.414;2023-08-06T12:50:17;0.43;;;0.30;;
35648;SDS011;21768;48.562;13.414;2023-08-06T12:52:42;1.83;;;0.60;;
35648;SDS011;21768;48.562;13.414;2023-08-06T12:55:08;1.02;;;0.22;;
35648;SDS011;21768;48.562;13.414;2023-08-06T12:57:33;0.43;;;0.20;;
35648;SDS011;21768;48.562;13.414;2023-08-06T12:59:59;0.77;;;0.20;;
35648;SDS011;21768;48.562;13.414;2023-08-06T13:02:25;1.58;;;0.38;;
35648;SDS011;21768;48.562;13.414;2023-08-06T13:04:54;3.28;;;0.40;;
35648;SDS011;21768;48.562;13.414;2023-08-06T13:07:20;1.27;;;0.30;;
35648;SDS011;21768;48.562;13.414;2023-08-06T13:09:45;0.95;;;0.20;;
35648;SDS011;21768;48.562;13.414;2023-08-06T13:12:10;0.90;;;0.20;;
35648;SDS011;21768;48.562;13.414;2023-08-06T13:14:36;0.38;;;0.25;;
35648;SDS011;21768;48.562;13.414;2023-08-06T13:17:01;0.98;;;0.50;;
35648;SDS011;21768;48.562;13.414;2023-08-06T13:19:27;2.63;;;0.55;;
35648;SDS011;21768;48.562;13.414;2023-08-06T13:22:02;0.25;;;0.22;;
35648;SDS011;21768;48.562;13.414;2023-08-06T13:24:30;0.47;;;0.30;;
35648;SDS011;21768;48.562;13.414;2023-08-06T13:26:56;0.47;;;0.30;;
35648;SDS011;21768;48.562;13.414;2023-08-06T13:29:21;0.55;;;0.30;;
35648;SDS011;21768;48.562;13.414;2023-08-06T13:31:47;0.47;;;0.40;;
35648;SDS011;21768;48.562;13.414;2023-08-06T13:34:12;1.70;;;0.30;;
35648;SDS011;21768;48.562;13.414;2023-08-06T13:36:37;3.30;;;0.90;;
35648;SDS011;21768;48.562;13.414;2023-08-06T13:39:03;0.60;;;0.30;;
35648;SDS011;21768;48.562;13.414;2023-08-06T13:41:30;0.30;;;0.30;;
35648;SDS011;21768;48.562;13.414;2023-08-06T13:43:55;8.45;;;2.05;;
35648;SDS011;21768;48.562;13.414;2023-08-06T13:46:21;1.10;;;0.20;;
35648;SDS011;21768;48.562;13.414;2023-08-06T13:48:47;1.23;;;0.30;;
35648;SDS011;21768;48.562;13.414;2023-08-06T13:51:15;0.90;;;0.20;;
35648;SDS011;21768;48.562;13.414;2023-08-06T13:53:41;2.03;;;0.28;;
35648;SDS011;21768;48.562;13.414;2023-08-06T13:56:07;2.92;;;0.20;;
35648;SDS011;21768;48.562;13.414;2023-08-06T13:58:34;0.52;;;0.30;;
35648;SDS011;21768;48.562;13.414;2023-08-06T14:01:00;0.40;;;0.22;;
35648;SDS011;21768;48.562;13.414;2023-08-06T14:03:25;3.25;;;0.30;;
35648;SDS011;21768;48.562;13.414;2023-08-06T14:05:51;0.88;;;0.38;;
35648;SDS011;21768;48.562;13.414;2023-08-06T14:08:16;0.43;;;0.20;;
35648;SDS011;21768;48.562;13.414;2023-08-06T14:10:44;2.90;;;0.30;;
35648;SDS011;21768;48.562;13.414;2023-08-06T14:13:10;0.70;;;0.30;;
35648;SDS011;21768;48.562;13.414;2023-08-06T14:15:36;0.70;;;0.20;;
35648;SDS011;21768;48.562;13.414;2023-08-06T14:18:01;0.77;;;0.20;;
35648;SDS011;21768;48.562;13.414;2023-08-06T14:20:27;1.77;;;0.32;;
35648;SDS011;21768;48.562;13.414;2023-08-06T14:22:53;0.57;;;0.30;;
35648;SDS011;21768;48.562;13.414;2023-08-06T14:25:18;0.68;;;0.20;;
35648;SDS011;21768;48.562;13.414;2023-08-06T14:27:44;0.17;;;0.17;;
35648;SDS011;21768;48.562;13.414;2023-08-06T14:30:09;1.13;;;0.40;;
35648;SDS011;21768;48.562;13.414;2023-08-06T14:32:35;0.38;;;0.13;;
35648;SDS011;21768;48.562;13.414;2023-08-06T14:35:00;0.32;;;0.10;;
35648;SDS011;21768;48.562;13.414;2023-08-06T14:37:26;0.75;;;0.30;;
35648;SDS011;21768;48.562;13.414;2023-08-06T14:39:51;1.13;;;0.10;;
35648;SDS011;21768;48.562;13.414;2023-08-06T14:42:17;0.30;;;0.20;;
35648;SDS011;21768;48.562;13.414;2023-08-06T14:44:43;0.52;;;0.30;;